Terminal Aerodrome Forecast
Issued by NWS Kansas City/Pleasant Hill, MO

Home | Current Version | Previous Version | Text Only | Print | Product List | Glossary On
Versions: 1 2 3 4 5 6 7 8 9 10 11 12 13 14 15 16 17
000
FTUS43 KEAX 191100
TAFMCI
TAF
KMCI 191120Z 1912/2012 02007KT P6SM SKC
     FM192000 03009KT P6SM SCT150 BKN250
     FM200500 06010KT P6SM OVC050
      TEMPO 2008/2012 4SM -SHRA OVC030=

USA.gov is the U.S. government's official web portal to all federal, state and local government web resources and services.